createdAt,value
2024-02-10T00:01:58.214Z,7.90
2024-02-10T00:04:25.183Z,8.40
2024-02-10T00:06:55.366Z,7.88
2024-02-10T00:09:22.188Z,7.97
2024-02-10T00:11:49.063Z,8.18
2024-02-10T00:14:17.712Z,7.80
2024-02-10T00:16:45.977Z,8.23
2024-02-10T00:19:13.005Z,8.73
2024-02-10T00:21:40.065Z,8.10
2024-02-10T00:24:07.054Z,8.63
2024-02-10T00:26:34.348Z,8.47
2024-02-10T00:29:03.144Z,8.15
2024-02-10T00:31:31.436Z,8.32
2024-02-10T00:33:59.050Z,7.75
2024-02-10T00:36:26.328Z,8.70
2024-02-10T00:38:53.279Z,8.10
2024-02-10T00:41:20.916Z,7.95
2024-02-10T00:43:48.512Z,7.93
2024-02-10T00:46:17.144Z,8.32
2024-02-10T00:48:45.133Z,8.25
2024-02-10T00:51:12.006Z,7.93
2024-02-10T00:53:41.724Z,8.32
2024-02-10T00:56:11.570Z,9.20
2024-02-10T00:58:43.031Z,8.32
2024-02-10T01:01:14.571Z,9.13
2024-02-10T01:03:46.183Z,9.10
2024-02-10T01:06:14.187Z,8.23
2024-02-10T01:08:47.708Z,8.45
2024-02-10T01:11:15.209Z,8.48
2024-02-10T01:13:45.128Z,8.88
2024-02-10T01:16:16.637Z,8.77
2024-02-10T01:18:44.610Z,8.65
2024-02-10T01:21:12.150Z,9.52
2024-02-10T01:23:43.854Z,9.18
2024-02-10T01:26:11.222Z,8.57
2024-02-10T01:28:38.339Z,8.30
2024-02-10T01:31:07.427Z,8.60
2024-02-10T01:33:34.954Z,8.32
2024-02-10T01:36:04.473Z,8.43
2024-02-10T01:38:31.802Z,8.20
2024-02-10T01:40:58.710Z,7.90
2024-02-10T01:43:28.671Z,8.23
2024-02-10T01:45:56.806Z,8.95
2024-02-10T01:48:23.695Z,8.23
2024-02-10T01:50:50.720Z,8.13
2024-02-10T01:53:17.548Z,8.20
2024-02-10T01:55:44.377Z,8.40
2024-02-10T01:58:12.236Z,8.45
2024-02-10T02:00:39.473Z,8.18
2024-02-10T02:03:06.422Z,7.95
2024-02-10T02:05:35.971Z,8.60
2024-02-10T02:08:03.790Z,8.57
2024-02-10T02:10:30.879Z,8.50
2024-02-10T02:12:59.156Z,7.78
2024-02-10T02:15:31.036Z,8.43
2024-02-10T02:18:01.137Z,7.50
2024-02-10T02:20:29.821Z,8.40
2024-02-10T02:22:56.829Z,8.65
2024-02-10T02:25:24.698Z,8.18
2024-02-10T02:27:51.633Z,8.48
2024-02-10T02:30:19.065Z,8.10
2024-02-10T02:32:45.956Z,8.20
2024-02-10T02:35:13.096Z,7.95
2024-02-10T02:37:42.447Z,7.80
2024-02-10T02:40:10.442Z,7.97
2024-02-10T02:42:37.335Z,7.63
2024-02-10T02:45:06.451Z,7.50
2024-02-10T02:47:33.818Z,7.97
2024-02-10T02:50:00.869Z,8.35
2024-02-10T02:52:28.901Z,8.18
2024-02-10T02:54:56.095Z,6.90
2024-02-10T02:57:24.349Z,7.60
2024-02-10T02:59:51.726Z,7.90
2024-02-10T03:02:18.556Z,8.02
2024-02-10T03:04:45.750Z,7.65
2024-02-10T03:07:14.693Z,7.47
2024-02-10T03:09:45.837Z,7.43
2024-02-10T03:12:13.142Z,7.82
2024-02-10T03:14:43.125Z,7.28
2024-02-10T03:17:12.104Z,7.65
2024-02-10T03:19:39.143Z,7.17
2024-02-10T03:22:07.175Z,7.75
2024-02-10T03:24:34.388Z,7.45
2024-02-10T03:27:04.325Z,7.43
2024-02-10T03:29:31.840Z,7.93
2024-02-10T03:31:58.698Z,6.97
2024-02-10T03:34:25.643Z,7.72
2024-02-10T03:36:52.608Z,7.85
2024-02-10T03:39:19.743Z,7.38
2024-02-10T03:41:46.616Z,7.72
2024-02-10T03:44:13.494Z,7.20
2024-02-10T03:46:40.786Z,7.30
2024-02-10T03:49:07.645Z,7.20
2024-02-10T03:51:34.564Z,6.82
2024-02-10T03:54:01.400Z,7.55
2024-02-10T03:56:29.194Z,7.17
2024-02-10T03:58:56.265Z,7.57
2024-02-10T04:01:23.225Z,7.07
2024-02-10T04:03:50.324Z,7.25
2024-02-10T04:06:17.711Z,7.00
2024-02-10T04:08:48.569Z,7.27
2024-02-10T04:11:18.360Z,7.40
2024-02-10T04:13:45.668Z,7.22
2024-02-10T04:16:14.430Z,7.50
2024-02-10T04:18:41.977Z,7.20
2024-02-10T04:21:09.056Z,7.20
2024-02-10T04:23:36.455Z,7.32
2024-02-10T04:26:03.574Z,7.32
2024-02-10T04:28:30.502Z,7.07
2024-02-10T04:30:57.349Z,7.00
2024-02-10T04:33:24.527Z,6.80
2024-02-10T04:35:51.614Z,7.60
2024-02-10T04:38:18.505Z,6.95
2024-02-10T04:40:46.534Z,6.97
2024-02-10T04:43:14.152Z,7.53
2024-02-10T04:45:47.070Z,6.80
2024-02-10T04:48:14.477Z,6.93
2024-02-10T04:50:42.443Z,7.75
2024-02-10T04:53:09.347Z,7.40
2024-02-10T04:55:37.296Z,7.13
2024-02-10T04:58:04.598Z,7.27
2024-02-10T05:00:33.443Z,7.35
2024-02-10T05:03:04.198Z,7.47
2024-02-10T05:05:31.357Z,7.20
2024-02-10T05:07:59.536Z,7.45
2024-02-10T05:10:26.719Z,7.00
2024-02-10T05:12:53.811Z,7.10
2024-02-10T05:15:22.534Z,7.60
2024-02-10T05:17:51.361Z,7.47
2024-02-10T05:20:22.752Z,7.72
2024-02-10T05:22:59.391Z,7.23
2024-02-10T05:25:36.440Z,7.65
2024-02-10T05:28:03.994Z,7.57
2024-02-10T05:30:30.888Z,6.45
2024-02-10T05:33:01.746Z,7.35
2024-02-10T05:35:31.333Z,7.30
2024-02-10T05:38:04.634Z,7.35
2024-02-10T05:40:31.965Z,7.68
2024-02-10T05:43:01.204Z,7.10
2024-02-10T05:45:32.473Z,7.35
2024-02-10T05:47:59.501Z,7.13
2024-02-10T05:50:26.611Z,7.07
2024-02-10T05:52:54.394Z,7.30
2024-02-10T05:55:27.812Z,7.10
2024-02-10T05:58:05.324Z,7.53
2024-02-10T06:00:32.918Z,6.53
2024-02-10T06:03:00.972Z,7.30
2024-02-10T06:05:29.647Z,6.60
2024-02-10T06:07:58.538Z,7.57
2024-02-10T06:10:25.959Z,7.25
2024-02-10T06:12:53.995Z,7.27
2024-02-10T06:15:21.208Z,6.57
2024-02-10T06:17:56.358Z,6.88
2024-02-10T06:20:27.217Z,7.22
2024-02-10T06:22:55.164Z,6.68
2024-02-10T06:25:29.331Z,6.30
2024-02-10T06:27:58.540Z,6.25
2024-02-10T06:30:29.056Z,7.07
2024-02-10T06:32:59.905Z,7.22
2024-02-10T06:35:27.312Z,7.18
2024-02-10T06:37:56.514Z,6.90
2024-02-10T06:40:24.490Z,6.65
2024-02-10T06:42:52.852Z,7.07
2024-02-10T06:45:23.628Z,6.70
2024-02-10T06:47:53.763Z,6.43
2024-02-10T06:50:28.380Z,6.10
2024-02-10T06:52:56.104Z,6.93
2024-02-10T06:55:28.571Z,6.63
2024-02-10T06:57:57.058Z,6.30
2024-02-10T07:00:24.214Z,6.72
2024-02-10T07:02:52.452Z,6.33
2024-02-10T07:05:20.816Z,5.75
2024-02-10T07:07:50.101Z,6.05
2024-02-10T07:10:19.497Z,5.90
2024-02-10T07:12:47.695Z,5.90
2024-02-10T07:15:15.853Z,6.13
2024-02-10T07:17:47.720Z,6.07
2024-02-10T07:20:19.672Z,5.82
2024-02-10T07:22:56.596Z,5.65
2024-02-10T07:25:27.261Z,6.00
2024-02-10T07:27:54.520Z,6.50
2024-02-10T07:30:21.995Z,6.20
2024-02-10T07:32:49.217Z,6.28
2024-02-10T07:35:17.565Z,6.18
2024-02-10T07:37:49.768Z,6.28
2024-02-10T07:40:18.149Z,5.73
2024-02-10T07:42:45.008Z,5.97
2024-02-10T07:45:12.274Z,6.25
2024-02-10T07:47:39.122Z,6.32
2024-02-10T07:50:08.114Z,6.40
2024-02-10T07:52:35.139Z,6.03
2024-02-10T07:55:02.130Z,6.43
2024-02-10T07:57:30.548Z,7.03
2024-02-10T07:59:57.801Z,6.85
2024-02-10T08:02:27.446Z,6.75
2024-02-10T08:04:56.156Z,6.80
2024-02-10T08:07:31.691Z,7.05
2024-02-10T08:09:59.709Z,6.70
2024-02-10T08:12:31.402Z,6.78
2024-02-10T08:14:58.581Z,7.63
2024-02-10T08:17:27.576Z,6.60
2024-02-10T08:20:01.585Z,7.43
2024-02-10T08:22:31.390Z,7.18
2024-02-10T08:24:59.985Z,7.35
2024-02-10T08:27:27.593Z,7.70
2024-02-10T08:29:54.962Z,7.90
2024-02-10T08:32:22.009Z,7.20
2024-02-10T08:34:49.772Z,7.63
2024-02-10T08:37:17.076Z,7.63
2024-02-10T08:39:47.585Z,7.78
2024-02-10T08:42:15.171Z,7.20
2024-02-10T08:44:42.165Z,7.20
2024-02-10T08:47:09.030Z,7.72
2024-02-10T08:49:42.486Z,7.80
2024-02-10T08:52:17.828Z,7.30
2024-02-10T08:54:45.321Z,8.07
2024-02-10T08:57:12.205Z,7.75
2024-02-10T08:59:43.360Z,8.15
2024-02-10T09:02:10.574Z,7.25
2024-02-10T09:04:41.526Z,8.30
2024-02-10T09:07:08.908Z,8.23
2024-02-10T09:09:36.167Z,7.53
2024-02-10T09:12:03.246Z,8.07
2024-02-10T09:14:31.407Z,7.60
2024-02-10T09:16:58.714Z,7.88
2024-02-10T09:19:26.517Z,7.93
2024-02-10T09:21:56.375Z,7.93
2024-02-10T09:24:24.863Z,8.13
2024-02-10T09:26:52.985Z,7.57
2024-02-10T09:29:22.820Z,7.75
2024-02-10T09:31:50.642Z,7.83
2024-02-10T09:34:19.812Z,8.35
2024-02-10T09:36:46.831Z,8.68
2024-02-10T09:39:14.262Z,8.40
2024-02-10T09:41:42.375Z,8.25
2024-02-10T09:44:11.530Z,8.40
2024-02-10T09:46:38.800Z,8.15
2024-02-10T09:49:11.378Z,8.30
2024-02-10T09:51:45.421Z,8.02
2024-02-10T09:54:15.286Z,7.88
2024-02-10T09:56:43.127Z,8.30
2024-02-10T09:59:13.601Z,8.30
2024-02-10T10:01:40.839Z,8.52
2024-02-10T10:04:13.793Z,8.80
2024-02-10T10:06:44.892Z,8.52
2024-02-10T10:09:14.045Z,8.10
2024-02-10T10:11:42.140Z,8.18
2024-02-10T10:14:14.959Z,8.48
2024-02-10T10:16:42.518Z,9.05
2024-02-10T10:19:09.749Z,8.57
2024-02-10T10:21:37.665Z,9.10
2024-02-10T10:24:04.865Z,9.77
2024-02-10T10:26:32.890Z,9.88
2024-02-10T10:29:00.469Z,9.80
2024-02-10T10:31:27.541Z,10.00
2024-02-10T10:33:54.992Z,9.50
2024-02-10T10:36:21.913Z,10.20
2024-02-10T10:38:48.726Z,10.60
2024-02-10T10:41:20.430Z,9.73
2024-02-10T10:43:47.586Z,9.98
2024-02-10T10:46:18.559Z,9.63
2024-02-10T10:48:46.100Z,10.00
2024-02-10T10:51:14.003Z,9.80
2024-02-10T10:53:47.300Z,9.85
2024-02-10T10:56:16.045Z,10.07
2024-02-10T10:58:51.176Z,9.83
2024-02-10T11:01:21.925Z,10.32
2024-02-10T11:03:49.525Z,11.25
2024-02-10T11:06:16.507Z,10.23
2024-02-10T11:08:46.735Z,10.05
2024-02-10T11:11:15.412Z,10.67
2024-02-10T11:13:42.309Z,9.95
2024-02-10T11:16:16.615Z,9.93
2024-02-10T11:18:47.310Z,9.65
2024-02-10T11:21:23.301Z,11.25
2024-02-10T11:24:01.663Z,10.80
2024-02-10T11:26:29.224Z,10.70
2024-02-10T11:29:02.683Z,9.93
2024-02-10T11:31:35.221Z,9.82
2024-02-10T11:34:16.989Z,10.30
2024-02-10T11:36:54.618Z,9.47
2024-02-10T11:39:24.118Z,10.13
2024-02-10T11:42:01.486Z,10.35
2024-02-10T11:44:31.057Z,10.15
2024-02-10T11:47:00.853Z,10.32
2024-02-10T11:49:28.568Z,9.43
2024-02-10T11:51:58.948Z,9.63
2024-02-10T11:54:32.530Z,9.85
2024-02-10T11:57:02.615Z,10.07
2024-02-10T11:59:30.760Z,10.40
2024-02-10T12:01:57.906Z,10.10
2024-02-10T12:04:26.861Z,9.98
2024-02-10T12:06:53.953Z,10.48
2024-02-10T12:09:20.794Z,10.63
2024-02-10T12:11:47.681Z,11.05
2024-02-10T12:14:15.810Z,11.60
2024-02-10T12:16:46.562Z,11.57
2024-02-10T12:19:14.892Z,11.95
2024-02-10T12:21:46.002Z,12.48
2024-02-10T12:24:13.033Z,12.73
2024-02-10T12:26:39.863Z,12.53
2024-02-10T12:29:12.865Z,12.63
2024-02-10T12:31:41.482Z,12.73
2024-02-10T12:34:10.502Z,13.30
2024-02-10T12:36:37.552Z,12.38
2024-02-10T12:39:07.152Z,12.60
2024-02-10T12:41:34.554Z,12.65
2024-02-10T12:44:01.399Z,12.10
2024-02-10T12:46:29.435Z,13.20
2024-02-10T12:48:56.861Z,12.98
2024-02-10T12:51:25.404Z,12.07
2024-02-10T12:53:55.765Z,12.95
2024-02-10T12:56:26.447Z,12.85
2024-02-10T12:58:53.267Z,12.45
2024-02-10T13:01:20.531Z,13.15
2024-02-10T13:03:47.426Z,13.23
2024-02-10T13:06:14.343Z,13.23
2024-02-10T13:08:41.328Z,13.05
2024-02-10T13:11:08.839Z,12.88
2024-02-10T13:13:36.253Z,13.05
2024-02-10T13:16:03.206Z,12.73
2024-02-10T13:18:33.180Z,13.30
2024-02-10T13:21:02.932Z,13.07
2024-02-10T13:23:29.791Z,13.30
2024-02-10T13:25:58.861Z,14.05
2024-02-10T13:28:25.696Z,13.20
2024-02-10T13:30:53.217Z,12.93
2024-02-10T13:33:20.097Z,13.75
2024-02-10T13:35:48.288Z,13.02
2024-02-10T13:38:28.979Z,12.93
2024-02-10T13:41:09.687Z,12.80
2024-02-10T13:43:50.425Z,13.57
2024-02-10T13:46:31.164Z,13.35
2024-02-10T13:49:11.822Z,13.23
2024-02-10T13:51:52.528Z,13.57
2024-02-10T13:54:33.173Z,13.03
2024-02-10T13:57:13.850Z,13.23
2024-02-10T13:59:40.601Z,13.68
2024-02-10T14:02:07.439Z,13.23
2024-02-10T14:04:48.476Z,14.25
2024-02-10T14:07:30.488Z,13.97
2024-02-10T14:10:09.600Z,14.60
2024-02-10T14:12:36.799Z,13.93
2024-02-10T14:15:07.900Z,13.88
2024-02-10T14:17:37.431Z,14.75
2024-02-10T14:20:19.743Z,14.93
2024-02-10T14:22:48.691Z,14.15
2024-02-10T14:25:25.236Z,14.73
2024-02-10T14:27:57.865Z,14.82
2024-02-10T14:30:32.951Z,14.65
2024-02-10T14:33:04.344Z,14.70
2024-02-10T14:35:49.372Z,15.60
2024-02-10T14:38:34.924Z,14.98
2024-02-10T14:41:05.800Z,15.85
2024-02-10T14:43:34.247Z,15.68
2024-02-10T14:46:04.168Z,14.93
2024-02-10T14:48:31.068Z,15.32
2024-02-10T14:51:03.409Z,15.10
2024-02-10T14:53:35.212Z,15.10
2024-02-10T14:56:14.265Z,14.73
2024-02-10T14:58:44.712Z,14.63
2024-02-10T15:01:11.993Z,14.80
2024-02-10T15:03:39.914Z,16.08
2024-02-10T15:06:09.996Z,14.93
2024-02-10T15:08:40.290Z,16.45
2024-02-10T15:11:08.287Z,15.47
2024-02-10T15:13:35.299Z,15.88
2024-02-10T15:16:02.107Z,15.13
2024-02-10T15:18:30.907Z,16.35
2024-02-10T15:20:57.871Z,16.42
2024-02-10T15:23:25.012Z,15.60
2024-02-10T15:25:54.674Z,15.60
2024-02-10T15:28:23.318Z,16.05
2024-02-10T15:30:51.386Z,17.30
2024-02-10T15:33:22.025Z,16.15
2024-02-10T15:35:50.315Z,16.77
2024-02-10T15:38:18.594Z,16.20
2024-02-10T15:40:51.628Z,16.60
2024-02-10T15:43:21.912Z,16.42
2024-02-10T15:45:48.934Z,15.77
2024-02-10T15:48:19.972Z,15.47
2024-02-10T15:50:47.888Z,15.15
2024-02-10T15:53:14.747Z,16.20
2024-02-10T15:55:42.353Z,15.70
2024-02-10T15:58:16.933Z,16.02
2024-02-10T16:00:50.097Z,15.83
2024-02-10T16:03:20.317Z,15.00
2024-02-10T16:05:50.094Z,16.15
2024-02-10T16:08:20.464Z,15.25
2024-02-10T16:10:48.549Z,16.42
2024-02-10T16:13:17.859Z,15.47
2024-02-10T16:15:44.988Z,15.70
2024-02-10T16:18:20.701Z,15.60
2024-02-10T16:20:48.260Z,17.23
2024-02-10T16:23:16.531Z,16.00
2024-02-10T16:25:44.275Z,16.27
2024-02-10T16:28:11.249Z,16.50
2024-02-10T16:30:40.961Z,16.23
2024-02-10T16:33:11.037Z,16.02
2024-02-10T16:35:38.649Z,16.95
2024-02-10T16:38:05.531Z,16.30
2024-02-10T16:40:32.791Z,17.17
2024-02-10T16:43:00.533Z,16.95
2024-02-10T16:45:28.028Z,16.98
2024-02-10T16:47:55.251Z,17.50
2024-02-10T16:50:24.340Z,17.57
2024-02-10T16:53:06.451Z,16.92
2024-02-10T16:55:38.359Z,18.30
2024-02-10T16:58:09.177Z,17.35
2024-02-10T17:00:40.245Z,17.38
2024-02-10T17:03:09.376Z,16.47
2024-02-10T17:05:58.968Z,16.13
2024-02-10T17:08:30.072Z,16.33
2024-02-10T17:10:57.149Z,17.48
2024-02-10T17:13:30.673Z,17.08
2024-02-10T17:15:57.712Z,17.30
2024-02-10T17:18:24.665Z,16.95
2024-02-10T17:20:53.585Z,17.90
2024-02-10T17:23:23.513Z,17.75
2024-02-10T17:25:52.035Z,17.35
2024-02-10T17:28:21.629Z,16.60
2024-02-10T17:30:51.199Z,18.15
2024-02-10T17:33:21.695Z,18.63
2024-02-10T17:35:51.760Z,18.58
2024-02-10T17:38:21.843Z,17.98
2024-02-10T17:40:49.158Z,18.00
2024-02-10T17:43:18.480Z,18.30
2024-02-10T17:45:45.924Z,18.13
2024-02-10T17:48:24.745Z,17.65
2024-02-10T17:50:52.803Z,18.52
2024-02-10T17:53:27.021Z,17.50
2024-02-10T17:55:56.244Z,19.08
2024-02-10T17:58:24.635Z,19.00
2024-02-10T18:00:52.301Z,18.00
2024-02-10T18:03:22.804Z,18.63
2024-02-10T18:05:56.256Z,18.67
2024-02-10T18:08:24.695Z,18.15
2024-02-10T18:10:51.789Z,18.20
2024-02-10T18:13:21.328Z,17.83
2024-02-10T18:15:48.351Z,17.92
2024-02-10T18:18:15.260Z,17.83
2024-02-10T18:20:42.309Z,17.58
2024-02-10T18:23:11.573Z,19.23
2024-02-10T18:25:43.441Z,18.10
2024-02-10T18:28:14.634Z,19.10
2024-02-10T18:30:46.394Z,17.83
2024-02-10T18:33:16.240Z,18.23
2024-02-10T18:35:49.106Z,17.63
2024-02-10T18:38:17.684Z,17.92
2024-02-10T18:40:45.002Z,19.38
2024-02-10T18:43:13.323Z,17.93
2024-02-10T18:45:45.619Z,19.00
2024-02-10T18:48:16.386Z,18.23
2024-02-10T18:50:44.453Z,18.45
2024-02-10T18:53:11.492Z,18.45
2024-02-10T18:55:39.341Z,18.53
2024-02-10T18:58:09.116Z,18.13
2024-02-10T19:00:36.136Z,18.10
2024-02-10T19:03:03.125Z,18.13
2024-02-10T19:05:30.080Z,19.00
2024-02-10T19:07:57.078Z,17.30
2024-02-10T19:10:25.124Z,18.92
2024-02-10T19:12:53.096Z,18.35
2024-02-10T19:15:19.962Z,17.20
2024-02-10T19:17:47.049Z,17.88
2024-02-10T19:20:17.863Z,17.40
2024-02-10T19:22:46.719Z,17.55
2024-02-10T19:25:17.348Z,18.35
2024-02-10T19:27:46.514Z,17.98
2024-02-10T19:30:14.137Z,18.02
2024-02-10T19:32:41.952Z,18.57
2024-02-10T19:35:17.424Z,17.58
2024-02-10T19:37:47.583Z,18.00
2024-02-10T19:40:18.840Z,17.85
2024-02-10T19:42:46.583Z,18.02
2024-02-10T19:45:16.738Z,17.90
2024-02-10T19:47:47.780Z,17.95
2024-02-10T19:50:15.830Z,17.35
2024-02-10T19:52:43.076Z,17.30
2024-02-10T19:55:10.759Z,17.70
2024-02-10T19:57:41.677Z,17.03
2024-02-10T20:00:14.107Z,16.92
2024-02-10T20:02:43.939Z,18.55
2024-02-10T20:05:11.428Z,18.17
2024-02-10T20:07:42.850Z,17.38
2024-02-10T20:10:10.474Z,17.27
2024-02-10T20:12:39.798Z,18.05
2024-02-10T20:15:07.269Z,18.13
2024-02-10T20:17:34.067Z,18.63
2024-02-10T20:20:18.994Z,18.83
2024-02-10T20:22:46.320Z,17.37
2024-02-10T20:25:13.742Z,18.67
2024-02-10T20:27:40.838Z,17.42
2024-02-10T20:30:10.794Z,18.10
2024-02-10T20:32:37.746Z,18.25
2024-02-10T20:35:05.057Z,17.77
2024-02-10T20:37:31.946Z,18.45
2024-02-10T20:39:58.714Z,17.48
2024-02-10T20:42:27.562Z,18.65
2024-02-10T20:44:54.419Z,18.20
2024-02-10T20:47:21.371Z,18.10
2024-02-10T20:49:48.226Z,17.73
2024-02-10T20:52:15.546Z,19.15
2024-02-10T20:54:44.421Z,18.33
2024-02-10T20:57:12.578Z,18.65
2024-02-10T20:59:39.880Z,18.20
2024-02-10T21:02:08.231Z,17.67
2024-02-10T21:04:35.507Z,18.13
2024-02-10T21:07:02.639Z,18.88
2024-02-10T21:09:30.685Z,18.38
2024-02-10T21:11:59.984Z,18.47
2024-02-10T21:14:28.285Z,17.58
2024-02-10T21:16:59.037Z,18.73
2024-02-10T21:19:26.132Z,17.92
2024-02-10T21:21:53.112Z,18.35
2024-02-10T21:24:22.174Z,17.83
2024-02-10T21:26:50.342Z,17.95
2024-02-10T21:29:17.492Z,18.77
2024-02-10T21:31:44.577Z,18.73
2024-02-10T21:34:12.646Z,19.35
2024-02-10T21:36:39.594Z,18.27
2024-02-10T21:39:17.419Z,18.52
2024-02-10T21:41:44.795Z,18.25
2024-02-10T21:44:11.816Z,18.15
2024-02-10T21:46:39.068Z,17.83
2024-02-10T21:49:05.939Z,17.37
2024-02-10T21:51:37.323Z,18.13
2024-02-10T21:54:06.289Z,17.85
2024-02-10T21:56:43.359Z,17.75
2024-02-10T21:59:13.157Z,18.58
2024-02-10T22:01:40.666Z,16.63
2024-02-10T22:04:07.985Z,17.42
2024-02-10T22:06:35.184Z,17.70
2024-02-10T22:09:03.100Z,17.40
2024-02-10T22:11:29.956Z,18.63
2024-02-10T22:13:56.819Z,17.93
2024-02-10T22:16:23.642Z,17.70
2024-02-10T22:18:51.111Z,18.23
2024-02-10T22:21:18.000Z,19.10
2024-02-10T22:23:44.872Z,18.10
2024-02-10T22:26:14.016Z,18.10
2024-02-10T22:28:42.051Z,19.70
2024-02-10T22:31:08.853Z,17.65
2024-02-10T22:33:36.475Z,18.25
2024-02-10T22:36:11.509Z,18.45
2024-02-10T22:38:39.592Z,17.53
2024-02-10T22:41:07.408Z,17.40
2024-02-10T22:43:34.407Z,18.48
2024-02-10T22:46:01.301Z,17.95
2024-02-10T22:48:28.227Z,19.25
2024-02-10T22:50:55.153Z,17.77
2024-02-10T22:53:23.436Z,18.10
2024-02-10T22:55:50.518Z,18.13
2024-02-10T22:58:17.366Z,19.00
2024-02-10T23:00:47.018Z,18.67
2024-02-10T23:03:15.558Z,18.37
2024-02-10T23:05:43.072Z,17.38
2024-02-10T23:08:14.276Z,17.85
2024-02-10T23:10:41.346Z,18.23
2024-02-10T23:13:08.491Z,18.23
2024-02-10T23:15:41.856Z,18.57
2024-02-10T23:18:12.239Z,17.80
2024-02-10T23:20:42.678Z,18.65
2024-02-10T23:23:19.560Z,17.85
2024-02-10T23:25:50.402Z,18.20
2024-02-10T23:28:17.655Z,18.00
2024-02-10T23:30:52.123Z,18.65
2024-02-10T23:33:27.753Z,18.38
2024-02-10T23:35:57.208Z,18.35
2024-02-10T23:38:28.121Z,19.50
2024-02-10T23:40:56.817Z,17.80
2024-02-10T23:43:24.197Z,17.27
2024-02-10T23:45:51.537Z,17.52
2024-02-10T23:48:20.918Z,17.67
2024-02-10T23:50:48.518Z,18.42
2024-02-10T23:53:15.913Z,16.67
2024-02-10T23:55:47.388Z,17.58
2024-02-10T23:58:14.388Z,18.40
